Terminal Aerodrome Forecast
Issued by NWS

Home | Current Version | Previous Version | Text Only | Print | Product List | Glossary On
Versions: 1 2 3 4 5 6 7 8 9 10 11 12 13 14 15 16 17 18 19 20 21 22 23 24 25 26 27 28 29 30 31
496
FTUS44 KOHX 230927 AAA
TAFCKV
TAF AMD
KCKV 230927Z 2309/2406 04009KT 6SM -SHRA BR OVC022
     FM231500 02012KT 5SM -SHRA BR BKN006 OVC012=

USA.gov is the U.S. government's official web portal to all federal, state and local government web resources and services.